createdAt,value
2019-03-17T00:01:57.626Z,68.80
2019-03-17T00:04:31.540Z,69.70
2019-03-17T00:06:59.655Z,69.10
2019-03-17T00:09:30.723Z,70.00
2019-03-17T00:12:01.892Z,69.50
2019-03-17T00:14:38.906Z,69.60
2019-03-17T00:17:10.197Z,69.80
2019-03-17T00:19:41.267Z,70.00
2019-03-17T00:22:12.643Z,70.30
2019-03-17T00:24:43.978Z,70.40
2019-03-17T00:27:15.471Z,70.50
2019-03-17T00:29:46.571Z,70.40
2019-03-17T00:32:25.911Z,70.70
2019-03-17T00:34:57.637Z,70.90
2019-03-17T00:37:29.060Z,71.10
2019-03-17T00:40:00.483Z,71.40
2019-03-17T00:42:48.000Z,71.60
2019-03-17T00:45:20.855Z,71.90
2019-03-17T00:47:51.892Z,72.00
2019-03-17T00:50:23.019Z,72.20
2019-03-17T00:52:55.263Z,72.40
2019-03-17T00:55:28.245Z,72.40
2019-03-17T00:58:09.329Z,72.60
2019-03-17T01:00:58.273Z,72.80
2019-03-17T01:04:16.845Z,73.00
2019-03-17T01:07:09.572Z,73.20
2019-03-17T01:09:59.927Z,73.60
2019-03-17T01:12:32.477Z,73.70
2019-03-17T01:15:03.553Z,73.70
2019-03-17T01:17:36.345Z,73.90
2019-03-17T01:20:11.264Z,74.00
2019-03-17T01:22:43.436Z,74.00
2019-03-17T01:25:14.717Z,74.10
2019-03-17T01:27:51.455Z,74.10
2019-03-17T01:30:36.720Z,74.30
2019-03-17T01:33:20.471Z,74.30
2019-03-17T01:35:51.646Z,74.30
2019-03-17T01:38:26.443Z,74.20
2019-03-17T01:41:07.250Z,74.40
2019-03-17T01:43:40.411Z,74.40
2019-03-17T01:46:24.201Z,74.90
2019-03-17T01:48:56.883Z,74.50
2019-03-17T01:51:46.919Z,74.80
2019-03-17T01:54:18.596Z,75.40
2019-03-17T01:56:56.435Z,74.90
2019-03-17T02:00:03.611Z,74.90
2019-03-17T02:02:41.436Z,75.10
2019-03-17T02:09:02.135Z,75.20
2019-03-17T02:16:04.666Z,75.30
2019-03-17T02:19:05.238Z,75.30
2019-03-17T02:21:49.027Z,75.40
2019-03-17T02:28:02.281Z,75.60
2019-03-17T02:30:42.023Z,75.50
2019-03-17T02:33:40.126Z,75.60
2019-03-17T02:36:23.635Z,75.70
2019-03-17T02:39:00.451Z,75.70
2019-03-17T02:41:44.014Z,75.70
2019-03-17T02:44:15.165Z,75.90
2019-03-17T02:46:48.581Z,75.90
2019-03-17T02:49:19.537Z,76.40
2019-03-17T02:51:50.609Z,76.40
2019-03-17T02:54:23.606Z,76.50
2019-03-17T02:57:17.511Z,76.60
2019-03-17T03:00:23.211Z,76.70
2019-03-17T03:03:28.392Z,77.00
2019-03-17T03:06:03.509Z,77.00
2019-03-17T03:08:55.486Z,77.10
2019-03-17T03:14:25.038Z,77.40
2019-03-17T03:17:23.014Z,77.50
2019-03-17T03:20:14.285Z,77.50
2019-03-17T03:22:53.256Z,77.50
2019-03-17T03:25:43.343Z,78.00
2019-03-17T03:28:45.472Z,78.20
2019-03-17T03:31:32.342Z,77.50
2019-03-17T03:34:01.442Z,77.50
2019-03-17T03:36:32.592Z,77.60
2019-03-17T03:39:10.982Z,77.50
2019-03-17T03:41:42.141Z,77.50
2019-03-17T03:44:13.134Z,77.40
2019-03-17T03:46:44.647Z,77.30
2019-03-17T03:49:24.670Z,77.30
2019-03-17T03:52:01.372Z,77.30
2019-03-17T03:54:37.413Z,77.30
2019-03-17T03:57:09.013Z,77.20
2019-03-17T04:02:23.516Z,76.90
2019-03-17T04:05:25.713Z,76.70
2019-03-17T04:08:28.689Z,76.20
2019-03-17T04:14:37.625Z,76.30
2019-03-17T04:17:23.552Z,76.10
2019-03-17T04:19:57.688Z,76.00
2019-03-17T04:22:37.044Z,76.00
2019-03-17T04:25:24.437Z,76.00
2019-03-17T04:28:00.119Z,76.00
2019-03-17T04:30:45.794Z,76.80
2019-03-17T04:33:28.206Z,76.00
2019-03-17T04:36:10.650Z,76.00
2019-03-17T04:39:10.339Z,75.90
2019-03-17T04:42:32.749Z,75.80
2019-03-17T04:45:18.007Z,75.70
2019-03-17T04:48:03.196Z,75.50
2019-03-17T04:51:04.051Z,75.40
2019-03-17T04:53:42.886Z,75.40
2019-03-17T04:56:17.451Z,75.50
2019-03-17T04:59:01.809Z,75.60
2019-03-17T05:01:58.600Z,75.60
2019-03-17T05:04:56.603Z,76.00
2019-03-17T05:07:32.718Z,75.90
2019-03-17T05:10:23.361Z,76.20
2019-03-17T05:12:56.072Z,76.40
2019-03-17T05:21:46.043Z,76.40
2019-03-17T05:24:46.356Z,76.50
2019-03-17T05:27:17.795Z,76.60
2019-03-17T05:29:52.050Z,76.60
2019-03-17T05:32:24.783Z,76.70
2019-03-17T05:35:28.034Z,76.80
2019-03-17T05:38:05.526Z,76.80
2019-03-17T05:40:38.111Z,76.90
2019-03-17T05:43:31.554Z,76.90
2019-03-17T05:46:22.335Z,77.00
2019-03-17T05:49:03.895Z,77.10
2019-03-17T05:52:08.264Z,77.10
2019-03-17T05:55:07.979Z,77.10
2019-03-17T05:58:08.637Z,77.20
2019-03-17T06:00:47.563Z,77.20
2019-03-17T06:03:30.806Z,76.90
2019-03-17T06:06:09.985Z,76.70
2019-03-17T06:08:49.320Z,76.40
2019-03-17T06:14:28.079Z,76.10
2019-03-17T06:17:42.625Z,76.00
2019-03-17T06:20:32.073Z,76.00
2019-03-17T06:23:38.666Z,75.90
2019-03-17T06:26:32.102Z,75.60
2019-03-17T06:29:20.167Z,75.30
2019-03-17T06:32:04.227Z,75.00
2019-03-17T06:34:49.028Z,75.00
2019-03-17T06:37:30.463Z,74.90
2019-03-17T06:40:17.820Z,74.50
2019-03-17T06:42:49.810Z,74.20
2019-03-17T06:45:26.423Z,73.90
2019-03-17T06:48:01.953Z,73.70
2019-03-17T06:50:40.373Z,73.30
2019-03-17T06:53:14.675Z,73.10
2019-03-17T06:56:30.947Z,73.10
2019-03-17T06:59:03.466Z,73.00
2019-03-17T07:01:46.075Z,72.80
2019-03-17T07:04:43.730Z,72.40
2019-03-17T07:07:43.927Z,72.50
2019-03-17T07:10:30.058Z,72.30
2019-03-17T07:13:13.358Z,72.40
2019-03-17T07:16:10.106Z,72.10
2019-03-17T07:22:12.558Z,72.10
2019-03-17T07:24:44.485Z,72.10
2019-03-17T07:27:16.632Z,72.10
2019-03-17T07:29:58.265Z,72.20
2019-03-17T07:32:32.216Z,71.70
2019-03-17T07:35:03.634Z,72.30
2019-03-17T07:37:36.459Z,71.50
2019-03-17T07:40:08.526Z,71.50
2019-03-17T07:42:41.005Z,71.40
2019-03-17T07:45:12.283Z,71.20
2019-03-17T07:47:43.464Z,71.20
2019-03-17T07:50:15.048Z,71.00
2019-03-17T07:52:48.948Z,71.00
2019-03-17T07:55:22.657Z,70.70
2019-03-17T07:57:53.798Z,70.80
2019-03-17T08:00:31.903Z,70.50
2019-03-17T08:02:57.773Z,70.30
2019-03-17T08:05:28.834Z,70.10
2019-03-17T08:08:09.359Z,70.90
2019-03-17T08:10:36.255Z,70.00
2019-03-17T08:13:07.572Z,69.60
2019-03-17T08:15:38.683Z,69.00
2019-03-17T08:18:10.016Z,68.90
2019-03-17T08:20:41.726Z,68.50
2019-03-17T08:23:23.934Z,68.00
2019-03-17T08:26:08.044Z,67.40
2019-03-17T08:28:53.077Z,67.00
2019-03-17T08:31:37.935Z,67.00
2019-03-17T08:34:24.679Z,66.20
2019-03-17T08:37:13.999Z,66.10
2019-03-17T08:40:01.099Z,66.30
2019-03-17T08:42:47.241Z,66.10
2019-03-17T08:45:31.016Z,65.80
2019-03-17T08:48:16.377Z,65.10
2019-03-17T08:50:59.787Z,64.70
2019-03-17T08:53:45.622Z,64.10
2019-03-17T08:56:29.794Z,64.00
2019-03-17T08:59:23.703Z,63.60
2019-03-17T09:02:01.810Z,63.10
2019-03-17T09:04:40.551Z,62.20
2019-03-17T09:07:18.742Z,61.90
2019-03-17T09:10:00.616Z,60.70
2019-03-17T09:12:42.597Z,60.40
2019-03-17T09:15:24.135Z,60.60
2019-03-17T09:18:06.231Z,59.00
2019-03-17T09:20:45.937Z,58.50
2019-03-17T09:23:38.714Z,59.10
2019-03-17T09:26:20.149Z,58.80
2019-03-17T09:28:59.952Z,58.70
2019-03-17T09:31:41.057Z,58.60
2019-03-17T09:34:17.936Z,59.10
2019-03-17T09:36:59.362Z,58.00
2019-03-17T09:39:41.954Z,58.00
2019-03-17T09:42:18.886Z,58.00
2019-03-17T09:45:05.896Z,58.20
2019-03-17T09:47:47.428Z,57.50
2019-03-17T09:50:36.416Z,57.60
2019-03-17T09:53:16.344Z,57.90
2019-03-17T09:56:04.497Z,58.00
2019-03-17T09:58:48.661Z,58.30
2019-03-17T10:01:29.685Z,57.70
2019-03-17T10:04:16.118Z,57.00
2019-03-17T10:07:00.839Z,57.80
2019-03-17T10:09:39.213Z,57.70
2019-03-17T10:12:23.080Z,57.60
2019-03-17T10:15:01.019Z,57.70
2019-03-17T10:17:38.297Z,58.10
2019-03-17T10:20:16.769Z,56.80
2019-03-17T10:22:48.447Z,56.80
2019-03-17T10:25:19.596Z,56.80
2019-03-17T10:27:50.532Z,56.80
2019-03-17T10:30:21.605Z,57.20
2019-03-17T10:32:52.589Z,56.90
2019-03-17T10:35:23.661Z,56.30
2019-03-17T10:37:54.602Z,55.60
2019-03-17T10:40:25.581Z,55.20
2019-03-17T10:42:56.828Z,55.90
2019-03-17T10:45:28.428Z,55.20
2019-03-17T10:47:59.525Z,54.90
2019-03-17T10:50:30.469Z,54.20
2019-03-17T10:53:01.545Z,53.70
2019-03-17T10:55:32.648Z,54.20
2019-03-17T10:58:04.341Z,54.40
2019-03-17T11:00:35.931Z,54.40
2019-03-17T11:03:07.426Z,54.50
2019-03-17T11:05:39.014Z,54.50
2019-03-17T11:08:10.731Z,54.60
2019-03-17T11:10:41.788Z,54.40
2019-03-17T11:13:13.557Z,54.20
2019-03-17T11:15:44.550Z,54.10
2019-03-17T11:18:15.675Z,54.50
2019-03-17T11:20:46.630Z,54.00
2019-03-17T11:23:17.786Z,52.70
2019-03-17T11:25:48.889Z,51.50
2019-03-17T11:28:21.029Z,49.60
2019-03-17T11:30:59.898Z,49.30
2019-03-17T11:33:31.454Z,48.80
2019-03-17T11:36:03.210Z,46.90
2019-03-17T11:38:34.215Z,46.60
2019-03-17T11:41:05.383Z,46.80
2019-03-17T11:43:36.418Z,46.00
2019-03-17T11:46:07.609Z,46.10
2019-03-17T11:48:38.646Z,45.70
2019-03-17T11:51:09.790Z,45.00
2019-03-17T11:53:40.734Z,45.10
2019-03-17T11:56:11.799Z,45.90
2019-03-17T11:58:44.187Z,45.60
2019-03-17T12:01:17.858Z,44.10
2019-03-17T12:03:48.375Z,43.70
2019-03-17T12:06:19.437Z,42.80
2019-03-17T12:08:50.962Z,43.20
2019-03-17T12:11:23.076Z,41.50
2019-03-17T12:13:54.143Z,39.90
2019-03-17T12:16:25.276Z,40.00
2019-03-17T12:18:56.453Z,41.70
2019-03-17T12:21:32.067Z,43.10
2019-03-17T12:26:58.360Z,43.20
2019-03-17T12:29:34.824Z,42.70
2019-03-17T12:32:16.548Z,43.50
2019-03-17T12:34:53.293Z,42.30
2019-03-17T12:37:29.430Z,41.40
2019-03-17T12:40:05.486Z,41.90
2019-03-17T12:42:41.677Z,42.80
2019-03-17T12:45:19.265Z,43.30
2019-03-17T12:47:55.726Z,43.20
2019-03-17T12:50:32.475Z,43.20
2019-03-17T12:53:09.581Z,43.30
2019-03-17T12:55:47.294Z,42.60
2019-03-17T12:58:25.792Z,42.50
2019-03-17T13:01:03.231Z,43.80
2019-03-17T13:03:43.833Z,43.70
2019-03-17T13:06:24.597Z,44.20
2019-03-17T13:09:01.727Z,45.30
2019-03-17T13:11:38.286Z,45.00
2019-03-17T13:14:14.914Z,45.90
2019-03-17T13:16:52.736Z,47.10
2019-03-17T13:19:29.478Z,48.10
2019-03-17T13:22:06.570Z,48.30
2019-03-17T13:24:46.378Z,48.60
2019-03-17T13:27:26.133Z,49.20
2019-03-17T13:30:07.413Z,48.90
2019-03-17T13:33:23.112Z,48.90
2019-03-17T13:36:01.833Z,48.90
2019-03-17T13:38:43.610Z,48.90
2019-03-17T13:41:23.158Z,48.50
2019-03-17T13:44:00.776Z,48.70
2019-03-17T13:46:39.535Z,49.10
2019-03-17T13:49:11.156Z,49.30
2019-03-17T13:51:42.077Z,49.60
2019-03-17T13:54:13.221Z,50.10
2019-03-17T13:56:44.516Z,49.90
2019-03-17T13:59:15.466Z,50.00
2019-03-17T14:01:46.646Z,49.80
2019-03-17T14:04:18.085Z,49.40
2019-03-17T14:06:49.367Z,49.20
2019-03-17T14:09:20.596Z,49.60
2019-03-17T14:11:51.630Z,49.60
2019-03-17T14:14:23.006Z,50.10
2019-03-17T14:16:57.145Z,50.30
2019-03-17T14:19:28.374Z,50.40
2019-03-17T14:21:59.553Z,50.50
2019-03-17T14:24:31.005Z,50.90
2019-03-17T14:27:02.223Z,50.90
2019-03-17T14:29:33.367Z,50.90
2019-03-17T14:32:04.463Z,51.10
2019-03-17T14:34:35.648Z,50.60
2019-03-17T14:37:07.046Z,50.90
2019-03-17T14:39:38.251Z,50.70
2019-03-17T14:42:09.571Z,50.60
2019-03-17T14:44:40.750Z,50.80
2019-03-17T14:47:11.939Z,50.90
2019-03-17T14:49:43.145Z,50.50
2019-03-17T14:52:14.311Z,50.30
2019-03-17T14:54:45.713Z,51.10
2019-03-17T14:57:17.232Z,51.40
2019-03-17T14:59:48.487Z,51.60
2019-03-17T15:02:19.657Z,51.50
2019-03-17T15:04:50.758Z,52.10
2019-03-17T15:07:21.888Z,52.90
2019-03-17T15:09:54.075Z,53.40
2019-03-17T15:12:25.903Z,53.90
2019-03-17T15:14:57.961Z,54.60
2019-03-17T15:17:29.012Z,54.90
2019-03-17T15:20:00.377Z,55.60
2019-03-17T15:22:31.613Z,56.00
2019-03-17T15:25:02.816Z,56.70
2019-03-17T15:27:33.794Z,55.70
2019-03-17T15:30:05.376Z,55.90
2019-03-17T15:32:36.471Z,56.10
2019-03-17T15:35:08.400Z,56.40
2019-03-17T15:37:39.655Z,56.60
2019-03-17T15:40:11.644Z,56.70
2019-03-17T15:42:42.683Z,56.80
2019-03-17T15:45:15.330Z,57.40
2019-03-17T15:47:47.077Z,57.60
2019-03-17T15:53:54.096Z,58.20
2019-03-17T15:56:38.560Z,58.50
2019-03-17T15:59:19.377Z,59.10
2019-03-17T16:01:51.885Z,59.40
2019-03-17T16:04:27.035Z,59.70
2019-03-17T16:07:06.556Z,60.00
2019-03-17T16:09:39.426Z,60.60
2019-03-17T16:12:10.590Z,61.10
2019-03-17T16:14:42.093Z,61.40
2019-03-17T16:17:13.277Z,61.90
2019-03-17T16:19:44.327Z,62.00
2019-03-17T16:22:15.474Z,62.20
2019-03-17T16:24:47.210Z,62.40
2019-03-17T16:27:20.005Z,62.60
2019-03-17T16:29:51.046Z,62.70
2019-03-17T16:32:22.315Z,63.50
2019-03-17T16:34:53.771Z,57.60
2019-03-17T16:37:26.474Z,58.00
2019-03-17T16:39:57.446Z,59.80
2019-03-17T16:42:28.625Z,61.00
2019-03-17T16:45:01.281Z,61.70
2019-03-17T16:47:33.411Z,62.30
2019-03-17T16:50:04.858Z,62.90
2019-03-17T16:52:36.098Z,63.30
2019-03-17T16:55:07.861Z,63.80
2019-03-17T16:57:39.613Z,64.50
2019-03-17T17:00:14.263Z,65.10
2019-03-17T17:02:46.060Z,65.60
2019-03-17T17:05:17.363Z,65.80
2019-03-17T17:08:21.864Z,65.80
2019-03-17T17:11:33.354Z,66.00
2019-03-17T17:14:30.949Z,66.40
2019-03-17T17:17:02.558Z,66.90
2019-03-17T17:19:33.786Z,67.00
2019-03-17T17:22:04.714Z,67.00
2019-03-17T17:24:35.881Z,66.90
2019-03-17T17:27:07.176Z,66.70
2019-03-17T17:29:38.399Z,66.10
2019-03-17T17:32:09.509Z,66.00
2019-03-17T17:34:40.765Z,65.70
2019-03-17T17:37:11.969Z,65.70
2019-03-17T17:39:43.171Z,65.50
2019-03-17T17:42:14.255Z,65.50
2019-03-17T17:44:46.826Z,65.80
2019-03-17T17:47:17.952Z,65.70
2019-03-17T17:49:49.349Z,65.80
2019-03-17T17:52:20.519Z,65.50
2019-03-17T17:54:57.736Z,65.60
2019-03-17T17:57:29.681Z,66.00
2019-03-17T18:00:02.510Z,66.70
2019-03-17T18:02:35.537Z,67.30
2019-03-17T18:05:07.904Z,67.20
2019-03-17T18:07:40.444Z,67.50
2019-03-17T18:10:12.681Z,67.50
2019-03-17T18:12:44.444Z,67.50
2019-03-17T18:15:18.146Z,67.60
2019-03-17T18:17:49.962Z,67.30
2019-03-17T18:20:23.491Z,67.90
2019-03-17T18:22:56.421Z,68.10
2019-03-17T18:28:19.431Z,68.20
2019-03-17T18:30:54.570Z,68.40
2019-03-17T18:33:26.236Z,68.40
2019-03-17T18:36:13.844Z,68.30
2019-03-17T18:38:47.686Z,68.60
2019-03-17T18:41:19.334Z,68.70
2019-03-17T18:43:50.639Z,68.30
2019-03-17T18:46:21.771Z,68.30
2019-03-17T18:48:52.945Z,68.30
2019-03-17T18:51:25.291Z,69.30
2019-03-17T18:53:56.733Z,68.60
2019-03-17T18:56:27.788Z,68.70
2019-03-17T18:58:59.061Z,68.70
2019-03-17T19:01:30.849Z,68.80
2019-03-17T19:04:10.765Z,68.90
2019-03-17T19:06:43.354Z,68.90
2019-03-17T19:09:15.535Z,68.60
2019-03-17T19:11:46.743Z,68.60
2019-03-17T19:14:17.798Z,68.50
2019-03-17T19:16:49.023Z,68.40
2019-03-17T19:19:20.406Z,68.50
2019-03-17T19:21:52.159Z,68.50
2019-03-17T19:24:24.545Z,68.60
2019-03-17T19:26:55.939Z,68.70
2019-03-17T19:29:27.379Z,68.80
2019-03-17T19:31:58.502Z,68.80
2019-03-17T19:34:29.648Z,68.80
2019-03-17T19:37:00.688Z,68.80
2019-03-17T19:39:31.576Z,68.60
2019-03-17T19:42:02.822Z,68.60
2019-03-17T19:44:33.839Z,68.80
2019-03-17T19:47:05.426Z,69.10
2019-03-17T19:49:36.830Z,69.20
2019-03-17T19:52:08.302Z,69.00
2019-03-17T19:54:39.605Z,69.10
2019-03-17T19:57:11.105Z,69.10
2019-03-17T19:59:42.141Z,69.10
2019-03-17T20:02:13.310Z,69.20
2019-03-17T20:04:44.538Z,69.60
2019-03-17T20:07:15.812Z,69.70
2019-03-17T20:09:47.314Z,69.80
2019-03-17T20:12:18.573Z,70.00
2019-03-17T20:14:49.939Z,70.20
2019-03-17T20:17:21.093Z,70.00
2019-03-17T20:19:52.147Z,70.10
2019-03-17T20:22:23.201Z,70.10
2019-03-17T20:24:54.521Z,70.20
2019-03-17T20:27:25.783Z,70.30
2019-03-17T20:29:57.017Z,70.10
2019-03-17T20:32:28.078Z,70.30
2019-03-17T20:34:59.134Z,70.00
2019-03-17T20:37:30.272Z,70.10
2019-03-17T20:40:01.351Z,70.30
2019-03-17T20:42:32.685Z,70.20
2019-03-17T20:45:03.729Z,70.20
2019-03-17T20:47:35.106Z,70.20
2019-03-17T20:50:07.153Z,70.20
2019-03-17T20:52:38.264Z,70.10
2019-03-17T20:55:09.495Z,70.10
2019-03-17T20:57:41.832Z,71.00
2019-03-17T21:00:14.913Z,70.10
2019-03-17T21:02:46.164Z,70.20
2019-03-17T21:05:17.205Z,70.10
2019-03-17T21:07:48.807Z,70.10
2019-03-17T21:10:19.810Z,70.20
2019-03-17T21:12:50.860Z,70.20
2019-03-17T21:15:22.073Z,70.20
2019-03-17T21:17:54.528Z,70.30
2019-03-17T21:20:26.045Z,70.40
2019-03-17T21:23:24.141Z,70.40
2019-03-17T21:25:57.319Z,70.30
2019-03-17T21:28:28.623Z,70.40
2019-03-17T21:31:01.881Z,70.50
2019-03-17T21:33:32.984Z,70.50
2019-03-17T21:36:04.235Z,70.60
2019-03-17T21:38:35.586Z,70.60
2019-03-17T21:41:07.498Z,70.70
2019-03-17T21:43:39.745Z,70.80
2019-03-17T21:46:11.275Z,71.60
2019-03-17T21:48:43.284Z,70.90
2019-03-17T21:51:14.474Z,70.80
2019-03-17T21:53:45.652Z,70.80
2019-03-17T21:56:17.730Z,70.80
2019-03-17T21:58:49.189Z,70.90
2019-03-17T22:01:22.556Z,70.80
2019-03-17T22:03:54.371Z,70.80
2019-03-17T22:06:26.063Z,70.90
2019-03-17T22:08:59.001Z,70.80
2019-03-17T22:11:30.274Z,70.80
2019-03-17T22:14:11.586Z,70.80
2019-03-17T22:16:34.712Z,70.90
2019-03-17T22:19:06.146Z,70.80
2019-03-17T22:21:37.138Z,71.00
2019-03-17T22:24:08.213Z,71.00
2019-03-17T22:26:39.905Z,71.10
2019-03-17T22:29:11.130Z,71.30
2019-03-17T22:31:42.248Z,71.00
2019-03-17T22:34:13.824Z,71.00
2019-03-17T22:36:45.767Z,71.00
2019-03-17T22:39:17.326Z,71.00
2019-03-17T22:41:48.294Z,71.80
2019-03-17T22:44:24.120Z,71.10
2019-03-17T22:46:52.976Z,71.30
2019-03-17T22:49:24.321Z,71.20
2019-03-17T22:51:55.559Z,71.20
2019-03-17T22:54:26.744Z,71.40
2019-03-17T22:56:58.040Z,71.30
2019-03-17T22:59:29.005Z,71.30
2019-03-17T23:02:41.021Z,71.30
2019-03-17T23:05:16.059Z,71.60
2019-03-17T23:07:48.367Z,71.50
2019-03-17T23:10:19.788Z,71.60
2019-03-17T23:12:50.954Z,71.30
2019-03-17T23:15:23.322Z,71.20
2019-03-17T23:17:54.360Z,71.10
2019-03-17T23:20:25.886Z,70.90
2019-03-17T23:22:57.023Z,70.70
2019-03-17T23:25:28.327Z,70.70
2019-03-17T23:28:37.708Z,70.50
2019-03-17T23:31:59.494Z,70.30
2019-03-17T23:35:01.947Z,70.20
2019-03-17T23:38:12.277Z,70.20
2019-03-17T23:41:14.765Z,70.10
2019-03-17T23:44:25.584Z,70.10
2019-03-17T23:47:18.517Z,70.20
2019-03-17T23:49:53.412Z,70.20
2019-03-17T23:52:25.149Z,70.20
2019-03-17T23:54:56.300Z,70.30
2019-03-17T23:57:27.524Z,71.00
2019-03-17T23:59:58.844Z,70.70
